Terminal Aerodrome Forecast
Issued by NWS

Home | Current Version | Previous Version | Text Only | Print | Product List | Glossary On
Versions: 1 2 3 4 5 6 7 8 9 10 11 12 13 14 15 16 17 18 19 20 21
045
FTUS44 KLZK 301136 AAA
TAFPBF
TAF AMD
KPBF 301136Z 3012/3112 VRB03KT P6SM SCT005 BKN060
     FM301400 VRB05KT P6SM VCSH SCT025 BKN100
     FM301800 25006KT P6SM VCTS SCT040CB BKN250
     FM310100 VRB03KT 6SM BR SCT015 BKN060
      TEMPO 3109/3112 3SM BR OVC015=

USA.gov is the U.S. government's official web portal to all federal, state and local government web resources and services.